Time;durP1;ratioP1;P1;durP2;ratioP2;P2;SDS_P1;SDS_P2;PMS_P1;PMS_P2;Temp;Humidity;BMP_temperature;BMP_pressure;BME280_temperature;BME280_humidity;BME280_pressure;Samples;Min_cycle;Max_cycle;Signal;HPM_P1;HPM_P2
2022/10/30 00:00:00;;;;;;;;;;;11.30;99.90;;;;;;5094640;28;20375;-80
2022/10/30 00:02:25;;;;;;;;;;;11.30;99.90;;;;;;5092949;28;19915;-79
2022/10/30 00:04:51;;;;;;;;;;;11.30;99.90;;;;;;5092571;28;19970;-80
2022/10/30 00:07:16;;;;;;;;;;;11.30;99.90;;;;;;5089938;28;19927;-80
2022/10/30 00:09:42;;;;;;;;;;;11.30;99.90;;;;;;5094429;28;19916;-79
2022/10/30 00:12:07;;;;;;;;;;;11.30;99.90;;;;;;5101713;28;19968;-80
2022/10/30 00:14:33;;;;;;;;;;;11.20;99.90;;;;;;5071766;28;19989;-80
2022/10/30 00:16:58;;;;;;;;;;;11.20;99.90;;;;;;5092514;28;19920;-79
2022/10/30 00:19:24;;;;;;;;;;;11.10;99.90;;;;;;5099274;28;19916;-79
2022/10/30 00:21:49;;;;;;;;;;;11.10;99.90;;;;;;5094588;28;19919;-79
2022/10/30 00:24:15;;;;;;;;;;;11.00;99.90;;;;;;5099412;28;19951;-79
2022/10/30 00:26:40;;;;;;;;;;;11.10;99.90;;;;;;5101156;28;19916;-80
2022/10/30 00:29:06;;;;;;;;;;;11.10;99.90;;;;;;5096526;28;19973;-80
2022/10/30 00:31:31;;;;;;;;;;;11.00;99.90;;;;;;5092345;28;20350;-79
2022/10/30 00:33:57;;;;;;;;;;;11.20;99.90;;;;;;5102446;28;20010;-79
2022/10/30 00:36:22;;;;;;;;;;;11.10;99.90;;;;;;5099747;28;19915;-80
2022/10/30 00:38:48;;;;;;;;;;;11.10;99.90;;;;;;5094731;28;19923;-80
2022/10/30 00:41:15;;;;;;;;;;;11.00;99.90;;;;;;5107416;28;20227;-80
2022/10/30 00:43:41;;;;;;;;;;;11.10;99.90;;;;;;5081908;28;20505;-79
2022/10/30 00:46:22;;;;;;;;;;;11.00;99.90;;;;;;5089860;28;19916;-80
2022/10/30 00:49:04;;;;;;;;;;;11.00;99.90;;;;;;5104359;28;19934;-79
2022/10/30 00:51:31;;;;;;;;;;;11.20;99.90;;;;;;5089444;28;19919;-79
2022/10/30 00:53:58;;;;;;;;;;;11.20;99.90;;;;;;5094981;28;19977;-79
2022/10/30 00:56:24;;;;;;;;;;;11.20;99.90;;;;;;5103410;28;20485;-79
2022/10/30 00:58:52;;;;;;;;;;;11.30;99.90;;;;;;5099486;28;19930;-80
2022/10/30 01:01:20;;;;;;;;;;;11.30;99.90;;;;;;5089460;28;19931;-80
2022/10/30 01:03:47;;;;;;;;;;;11.30;99.90;;;;;;5099048;28;19956;-79
2022/10/30 01:06:14;;;;;;;;;;;11.30;99.90;;;;;;5078255;28;19920;-80
2022/10/30 01:08:39;;;;;;;;;;;11.30;99.90;;;;;;5089971;28;19920;-79
2022/10/30 01:11:06;;;;;;;;;;;11.30;99.90;;;;;;5095124;28;19916;-80
2022/10/30 01:13:33;;;;;;;;;;;11.30;99.90;;;;;;5094300;28;20499;-79
2022/10/30 01:16:11;;;;;;;;;;;11.30;99.90;;;;;;5072597;28;19927;-79
2022/10/30 01:18:42;;;;;;;;;;;11.30;99.90;;;;;;5100495;28;19919;-80
2022/10/30 01:21:26;;;;;;;;;;;11.30;99.90;;;;;;5093614;28;19951;-80
2022/10/30 01:24:10;;;;;;;;;;;11.30;99.90;;;;;;5098319;28;19970;-79
2022/10/30 01:26:43;;;;;;;;;;;11.20;99.90;;;;;;5091558;28;19985;-80
2022/10/30 01:29:08;;;;;;;;;;;11.30;99.90;;;;;;5095354;28;19973;-80
2022/10/30 01:31:53;;;;;;;;;;;11.40;99.90;;;;;;5093748;28;20520;-79
2022/10/30 01:34:20;;;;;;;;;;;11.50;99.90;;;;;;5102777;28;19912;-80
2022/10/30 01:36:50;;;;;;;;;;;11.40;99.90;;;;;;5098465;28;19916;-79
2022/10/30 01:39:21;;;;;;;;;;;11.40;99.90;;;;;;5096940;28;19924;-80
2022/10/30 01:41:46;;;;;;;;;;;11.40;99.90;;;;;;5101027;28;19973;-79
2022/10/30 01:44:15;;;;;;;;;;;11.40;99.90;;;;;;5102899;28;19927;-80
2022/10/30 01:46:43;;;;;;;;;;;11.40;99.90;;;;;;5099277;28;19916;-79
2022/10/30 01:49:27;;;;;;;;;;;11.40;99.90;;;;;;5106857;28;19974;-79
2022/10/30 01:52:12;;;;;;;;;;;11.40;99.90;;;;;;5099151;28;19920;-80
2022/10/30 01:55:00;;;;;;;;;;;11.40;99.90;;;;;;5092526;28;20379;-80
2022/10/30 01:57:26;;;;;;;;;;;11.40;99.90;;;;;;5099401;28;20574;-79
2022/10/30 01:59:58;;;;;;;;;;;11.40;99.90;;;;;;5091562;28;19912;-80
2022/10/30 02:02:23;;;;;;;;;;;11.40;99.90;;;;;;5098831;28;19919;-79
2022/10/30 02:04:49;;;;;;;;;;;11.40;99.90;;;;;;5099936;28;19916;-79
2022/10/30 02:07:15;;;;;;;;;;;11.40;99.90;;;;;;5106248;28;19924;-80
2022/10/30 02:09:40;;;;;;;;;;;11.40;99.90;;;;;;5081061;28;20063;-80
2022/10/30 02:12:07;;;;;;;;;;;11.40;99.90;;;;;;5099672;28;20275;-80
2022/10/30 02:14:35;;;;;;;;;;;11.30;99.90;;;;;;5096361;28;19920;-79
2022/10/30 02:17:03;;;;;;;;;;;11.30;99.90;;;;;;5095808;28;19916;-80
2022/10/30 02:19:28;;;;;;;;;;;11.30;99.90;;;;;;5102012;28;19943;-79
2022/10/30 02:21:54;;;;;;;;;;;11.40;99.90;;;;;;5110265;28;19957;-79
2022/10/30 02:24:19;;;;;;;;;;;11.30;99.90;;;;;;5103321;28;19916;-79
2022/10/30 02:26:45;;;;;;;;;;;11.20;99.90;;;;;;5112697;28;19969;-80
2022/10/30 02:29:11;;;;;;;;;;;11.20;99.90;;;;;;5102032;27;19920;-79
2022/10/30 02:31:36;;;;;;;;;;;11.20;99.90;;;;;;5096222;28;19922;-79
2022/10/30 02:34:02;;;;;;;;;;;11.20;99.90;;;;;;5096348;28;19911;-80
2022/10/30 02:36:27;;;;;;;;;;;11.20;99.90;;;;;;5102095;28;19962;-79
2022/10/30 02:38:54;;;;;;;;;;;11.10;99.90;;;;;;5096343;28;19916;-79
2022/10/30 02:41:20;;;;;;;;;;;11.00;99.90;;;;;;5100468;28;19912;-79
2022/10/30 02:43:45;;;;;;;;;;;11.10;99.90;;;;;;5094727;28;19984;-80
2022/10/30 02:46:11;;;;;;;;;;;11.10;99.90;;;;;;5087007;28;19928;-80
2022/10/30 02:48:36;;;;;;;;;;;11.30;99.90;;;;;;5102410;28;19919;-80
2022/10/30 02:51:03;;;;;;;;;;;11.30;99.90;;;;;;5098274;28;19916;-80
2022/10/30 02:53:28;;;;;;;;;;;11.20;99.90;;;;;;5091669;28;20422;-79
2022/10/30 02:55:54;;;;;;;;;;;11.40;99.90;;;;;;5103198;28;19947;-79
2022/10/30 02:58:20;;;;;;;;;;;11.50;99.90;;;;;;5096219;28;19968;-80
2022/10/30 03:00:45;;;;;;;;;;;11.50;99.90;;;;;;5089819;28;19916;-81
2022/10/30 03:03:11;;;;;;;;;;;11.50;99.90;;;;;;5114207;27;19945;-80
2022/10/30 03:05:36;;;;;;;;;;;11.40;99.90;;;;;;5099384;28;19923;-79
2022/10/30 03:08:02;;;;;;;;;;;11.40;99.90;;;;;;5086700;28;19931;-79
2022/10/30 03:10:27;;;;;;;;;;;11.40;99.90;;;;;;5102560;28;19999;-79
2022/10/30 03:12:53;;;;;;;;;;;11.20;99.90;;;;;;5092943;28;19939;-79
2022/10/30 03:15:19;;;;;;;;;;;11.10;99.90;;;;;;5092999;28;19947;-80
2022/10/30 03:17:44;;;;;;;;;;;11.10;99.90;;;;;;5099900;28;19915;-79
2022/10/30 03:20:10;;;;;;;;;;;11.20;99.90;;;;;;5101460;28;19916;-80
2022/10/30 03:22:35;;;;;;;;;;;11.10;99.90;;;;;;5099183;28;19912;-79
2022/10/30 03:25:01;;;;;;;;;;;11.10;99.90;;;;;;5089101;28;19918;-80
2022/10/30 03:27:26;;;;;;;;;;;11.10;99.90;;;;;;5087841;28;19928;-80
2022/10/30 03:29:52;;;;;;;;;;;11.10;99.90;;;;;;5114735;27;20325;-79
2022/10/30 03:32:17;;;;;;;;;;;10.90;99.90;;;;;;5071258;28;19955;-79
2022/10/30 03:34:43;;;;;;;;;;;10.90;99.90;;;;;;5102253;28;19912;-79
2022/10/30 03:37:08;;;;;;;;;;;10.90;99.90;;;;;;5081855;28;19942;-79
2022/10/30 03:39:34;;;;;;;;;;;10.90;99.90;;;;;;5092896;28;19988;-80
2022/10/30 03:41:59;;;;;;;;;;;10.80;99.90;;;;;;5083633;28;19912;-79
2022/10/30 03:44:25;;;;;;;;;;;10.80;99.90;;;;;;5088324;28;19928;-80
2022/10/30 03:46:50;;;;;;;;;;;10.70;99.90;;;;;;5093872;28;20401;-79
2022/10/30 03:49:16;;;;;;;;;;;10.70;99.90;;;;;;5099314;28;19954;-79
2022/10/30 03:51:41;;;;;;;;;;;10.80;99.90;;;;;;5073870;28;20011;-79
2022/10/30 03:54:07;;;;;;;;;;;10.90;99.90;;;;;;5097982;28;20581;-80
2022/10/30 03:56:32;;;;;;;;;;;10.80;99.90;;;;;;5103406;28;19920;-79
2022/10/30 03:58:58;;;;;;;;;;;10.80;99.90;;;;;;5098052;28;20014;-78
2022/10/30 04:01:23;;;;;;;;;;;10.80;99.90;;;;;;5093667;28;19977;-79
2022/10/30 04:03:49;;;;;;;;;;;10.80;99.90;;;;;;5105565;28;20370;-78
2022/10/30 04:06:14;;;;;;;;;;;10.90;99.90;;;;;;5099470;28;20025;-80
2022/10/30 04:08:40;;;;;;;;;;;10.90;99.90;;;;;;5071904;28;19924;-80
2022/10/30 04:11:08;;;;;;;;;;;10.80;99.90;;;;;;5101336;28;20399;-81
2022/10/30 04:13:33;;;;;;;;;;;10.80;99.90;;;;;;5099233;28;19970;-80
2022/10/30 04:15:59;;;;;;;;;;;10.90;99.90;;;;;;5091735;28;19924;-79
2022/10/30 04:18:24;;;;;;;;;;;10.90;99.90;;;;;;5104059;28;20430;-80
2022/10/30 04:20:50;;;;;;;;;;;11.00;99.90;;;;;;5096988;28;19912;-80
2022/10/30 04:23:17;;;;;;;;;;;11.20;99.90;;;;;;5093091;28;19923;-80
2022/10/30 04:25:42;;;;;;;;;;;11.20;99.90;;;;;;5102823;28;19949;-80
2022/10/30 04:28:08;;;;;;;;;;;11.20;99.90;;;;;;5096008;28;19954;-80
2022/10/30 04:30:35;;;;;;;;;;;11.20;99.90;;;;;;5090604;28;19917;-80
2022/10/30 04:33:04;;;;;;;;;;;11.20;99.90;;;;;;5088551;28;19912;-79
2022/10/30 04:35:32;;;;;;;;;;;11.20;99.90;;;;;;5092850;28;20002;-79
2022/10/30 04:37:59;;;;;;;;;;;11.20;99.90;;;;;;5092158;28;19912;-80
2022/10/30 04:40:26;;;;;;;;;;;11.30;99.90;;;;;;5102455;28;20383;-80
2022/10/30 04:42:51;;;;;;;;;;;11.40;99.90;;;;;;5088888;28;19916;-80
2022/10/30 04:45:17;;;;;;;;;;;11.30;99.90;;;;;;5080011;28;20585;-80
2022/10/30 04:47:43;;;;;;;;;;;11.40;99.90;;;;;;5100629;28;19912;-80
2022/10/30 04:50:09;;;;;;;;;;;11.40;99.90;;;;;;5093036;28;19927;-80
2022/10/30 04:52:34;;;;;;;;;;;11.40;99.90;;;;;;5092432;28;19916;-80
2022/10/30 04:55:00;;;;;;;;;;;11.30;99.90;;;;;;5098928;28;19916;-80
2022/10/30 04:57:26;;;;;;;;;;;11.30;99.90;;;;;;5099818;28;19915;-79
2022/10/30 04:59:51;;;;;;;;;;;11.20;99.90;;;;;;5092405;28;19916;-80
2022/10/30 05:02:20;;;;;;;;;;;11.20;99.90;;;;;;5095220;28;19920;-79
2022/10/30 05:04:45;;;;;;;;;;;11.10;99.90;;;;;;5103823;28;20410;-79
2022/10/30 05:07:11;;;;;;;;;;;11.10;99.90;;;;;;5095906;28;19920;-80
2022/10/30 05:09:36;;;;;;;;;;;11.00;99.90;;;;;;5081396;28;19988;-80
2022/10/30 05:12:02;;;;;;;;;;;11.00;99.90;;;;;;5104058;28;19920;-80
2022/10/30 05:14:31;;;;;;;;;;;11.00;99.90;;;;;;5101183;28;19915;-80
2022/10/30 05:16:57;;;;;;;;;;;11.00;99.90;;;;;;5103543;28;19946;-79
2022/10/30 05:19:23;;;;;;;;;;;11.00;99.90;;;;;;5103585;28;19915;-79
2022/10/30 05:21:48;;;;;;;;;;;11.00;99.90;;;;;;5098535;28;19920;-80
2022/10/30 05:24:14;;;;;;;;;;;11.00;99.90;;;;;;5101632;28;19912;-80
2022/10/30 05:26:39;;;;;;;;;;;10.90;99.90;;;;;;5094867;28;19917;-79
2022/10/30 05:29:05;;;;;;;;;;;10.90;99.90;;;;;;5095195;28;19920;-80
2022/10/30 05:31:30;;;;;;;;;;;10.90;99.90;;;;;;5100554;28;19925;-79
2022/10/30 05:33:56;;;;;;;;;;;10.80;99.90;;;;;;5105463;28;19977;-80
2022/10/30 05:36:21;;;;;;;;;;;10.80;99.90;;;;;;5098308;28;19916;-80
2022/10/30 05:38:47;;;;;;;;;;;10.80;99.90;;;;;;5095389;28;19920;-80
2022/10/30 05:41:12;;;;;;;;;;;10.80;99.90;;;;;;5101750;28;19946;-79
2022/10/30 05:43:38;;;;;;;;;;;10.70;99.90;;;;;;5095693;28;19924;-80
2022/10/30 05:46:03;;;;;;;;;;;10.70;99.90;;;;;;5097230;28;20410;-80
2022/10/30 05:48:29;;;;;;;;;;;10.70;99.90;;;;;;5081034;28;19923;-79
2022/10/30 05:50:55;;;;;;;;;;;10.70;99.90;;;;;;5079515;28;19963;-79
2022/10/30 05:53:21;;;;;;;;;;;10.80;99.90;;;;;;5095808;28;19908;-79
2022/10/30 05:55:47;;;;;;;;;;;10.70;99.90;;;;;;5107710;28;19919;-80
2022/10/30 05:58:12;;;;;;;;;;;10.70;99.90;;;;;;5099254;28;20375;-80
2022/10/30 06:00:39;;;;;;;;;;;10.70;99.90;;;;;;5100372;28;19924;-79
2022/10/30 06:03:06;;;;;;;;;;;10.70;99.90;;;;;;5087426;28;20007;-80
2022/10/30 06:05:33;;;;;;;;;;;10.80;99.90;;;;;;5112537;27;19920;-79
2022/10/30 06:07:58;;;;;;;;;;;10.90;99.90;;;;;;5096502;28;19924;-79
2022/10/30 06:10:24;;;;;;;;;;;10.80;99.90;;;;;;5107847;28;20317;-80
2022/10/30 06:12:56;;;;;;;;;;;10.80;99.90;;;;;;5104240;28;19912;-79
2022/10/30 06:15:22;;;;;;;;;;;10.70;99.90;;;;;;5090993;28;19924;-80
2022/10/30 06:17:48;;;;;;;;;;;10.70;99.90;;;;;;5079102;28;19924;-80
2022/10/30 06:20:14;;;;;;;;;;;10.70;99.90;;;;;;5093968;28;20007;-79
2022/10/30 06:22:39;;;;;;;;;;;10.70;99.90;;;;;;5093384;28;19940;-80
2022/10/30 06:25:05;;;;;;;;;;;10.70;99.90;;;;;;5100531;28;19967;-80
2022/10/30 06:27:34;;;;;;;;;;;10.70;99.90;;;;;;5092177;28;19919;-81
2022/10/30 06:29:59;;;;;;;;;;;10.70;99.90;;;;;;5105741;27;19916;-82
2022/10/30 06:32:25;;;;;;;;;;;10.80;99.90;;;;;;5097562;28;20625;-83
2022/10/30 06:34:50;;;;;;;;;;;10.80;99.90;;;;;;5084570;28;20287;-82
2022/10/30 06:37:16;;;;;;;;;;;10.90;99.90;;;;;;5089101;28;19920;-82
2022/10/30 06:39:41;;;;;;;;;;;10.90;99.90;;;;;;5095554;28;19912;-81
2022/10/30 06:42:09;;;;;;;;;;;10.90;99.90;;;;;;5091461;28;20320;-81
2022/10/30 06:44:34;;;;;;;;;;;10.90;99.90;;;;;;5089952;28;20049;-82
2022/10/30 06:47:00;;;;;;;;;;;10.90;99.90;;;;;;5101956;28;20038;-76
2022/10/30 06:49:25;;;;;;;;;;;11.00;99.90;;;;;;5095386;28;20187;-80
2022/10/30 06:51:51;;;;;;;;;;;11.00;99.90;;;;;;5099293;28;20376;-79
2022/10/30 06:54:16;;;;;;;;;;;11.10;99.90;;;;;;5095910;28;19919;-78
2022/10/30 06:56:41;;;;;;;;;;;11.20;99.90;;;;;;5096046;28;20303;-78
2022/10/30 06:59:07;;;;;;;;;;;11.30;99.90;;;;;;5095366;28;19916;-78
2022/10/30 07:01:33;;;;;;;;;;;11.30;99.90;;;;;;5092717;28;19920;-78
2022/10/30 07:03:58;;;;;;;;;;;11.40;99.90;;;;;;5098808;28;19953;-78
2022/10/30 07:06:24;;;;;;;;;;;11.30;99.90;;;;;;5096807;28;19957;-77
2022/10/30 07:08:49;;;;;;;;;;;11.30;99.90;;;;;;5093184;28;19979;-78
2022/10/30 07:11:15;;;;;;;;;;;11.30;99.90;;;;;;5100112;28;19920;-79
2022/10/30 07:13:40;;;;;;;;;;;11.40;99.90;;;;;;5096213;28;19920;-78
2022/10/30 07:16:06;;;;;;;;;;;11.30;99.90;;;;;;5083073;28;19923;-79
2022/10/30 07:18:31;;;;;;;;;;;11.30;99.90;;;;;;5098007;28;20447;-79
2022/10/30 07:20:57;;;;;;;;;;;11.30;99.90;;;;;;5094872;28;19920;-78
2022/10/30 07:23:22;;;;;;;;;;;11.40;99.90;;;;;;5079207;28;19916;-79
2022/10/30 07:25:48;;;;;;;;;;;11.50;99.90;;;;;;5104750;28;20383;-78
2022/10/30 07:28:13;;;;;;;;;;;11.50;99.90;;;;;;5076109;28;19974;-78
2022/10/30 07:30:39;;;;;;;;;;;11.60;99.90;;;;;;5094815;28;19927;-79
2022/10/30 07:33:05;;;;;;;;;;;11.60;99.90;;;;;;5099098;28;19916;-79
2022/10/30 07:35:31;;;;;;;;;;;11.80;99.90;;;;;;5074904;28;19916;-79
2022/10/30 07:38:16;;;;;;;;;;;11.80;99.90;;;;;;5092276;28;19920;-79
2022/10/30 07:40:42;;;;;;;;;;;11.90;99.90;;;;;;5098001;28;20563;-79
2022/10/30 07:43:09;;;;;;;;;;;12.00;99.90;;;;;;5093411;28;19927;-79
2022/10/30 07:45:34;;;;;;;;;;;12.10;99.90;;;;;;5089117;28;19924;-79
2022/10/30 07:48:00;;;;;;;;;;;12.20;99.90;;;;;;5098339;28;19930;-79
2022/10/30 07:50:26;;;;;;;;;;;12.30;99.90;;;;;;5096033;28;19916;-81
2022/10/30 07:52:51;;;;;;;;;;;12.40;99.90;;;;;;5070955;28;19917;-81
2022/10/30 07:55:17;;;;;;;;;;;12.40;99.90;;;;;;5087335;28;19966;-80
2022/10/30 07:57:42;;;;;;;;;;;12.60;99.90;;;;;;5091847;28;20407;-80
2022/10/30 08:00:09;;;;;;;;;;;12.60;99.90;;;;;;5099684;28;19924;-84
2022/10/30 08:02:35;;;;;;;;;;;12.70;99.90;;;;;;5088944;28;19943;-80
2022/10/30 08:05:00;;;;;;;;;;;12.80;99.90;;;;;;5085519;28;20371;-79
2022/10/30 08:07:30;;;;;;;;;;;12.90;99.90;;;;;;5069695;28;19920;-82
2022/10/30 08:09:55;;;;;;;;;;;13.00;99.90;;;;;;5090137;28;19917;-77
2022/10/30 08:12:20;;;;;;;;;;;13.10;99.90;;;;;;5088709;28;19917;-77
2022/10/30 08:14:46;;;;;;;;;;;13.20;99.90;;;;;;5096106;28;20015;-77
2022/10/30 08:17:11;;;;;;;;;;;13.40;99.90;;;;;;5097015;28;19920;-77
2022/10/30 08:19:37;;;;;;;;;;;13.50;99.90;;;;;;5100693;28;19919;-77
2022/10/30 08:22:02;;;;;;;;;;;13.60;99.90;;;;;;5092990;28;19947;-76
2022/10/30 08:24:28;;;;;;;;;;;13.70;99.90;;;;;;5100040;28;19926;-76
2022/10/30 08:26:53;;;;;;;;;;;13.90;99.90;;;;;;5095405;28;19928;-78
2022/10/30 08:29:19;;;;;;;;;;;14.00;99.90;;;;;;5092067;28;20367;-77
2022/10/30 08:31:47;;;;;;;;;;;14.10;99.90;;;;;;5089624;28;19929;-76
2022/10/30 08:34:12;;;;;;;;;;;14.20;99.90;;;;;;5095328;28;19920;-77
2022/10/30 08:36:38;;;;;;;;;;;14.30;99.90;;;;;;5083226;28;19931;-77
2022/10/30 08:39:03;;;;;;;;;;;14.50;99.90;;;;;;5094700;28;20062;-78
2022/10/30 08:41:29;;;;;;;;;;;14.60;99.90;;;;;;5100914;28;19964;-77
2022/10/30 08:43:55;;;;;;;;;;;14.70;99.90;;;;;;5092692;28;19997;-77
2022/10/30 08:46:20;;;;;;;;;;;14.80;99.90;;;;;;5096750;28;20014;-77
2022/10/30 08:48:46;;;;;;;;;;;14.90;99.90;;;;;;5099239;28;19927;-77
2022/10/30 08:51:11;;;;;;;;;;;15.00;99.90;;;;;;5097677;28;19916;-77
2022/10/30 08:53:37;;;;;;;;;;;15.20;99.90;;;;;;5093796;28;19915;-77
2022/10/30 08:56:02;;;;;;;;;;;15.30;99.90;;;;;;5109492;27;20007;-77
2022/10/30 08:58:28;;;;;;;;;;;15.30;99.90;;;;;;5094884;28;19920;-76
2022/10/30 09:00:53;;;;;;;;;;;15.40;99.90;;;;;;5089979;28;19955;-77
2022/10/30 09:03:19;;;;;;;;;;;15.60;99.90;;;;;;5075216;28;19942;-77
2022/10/30 09:05:44;;;;;;;;;;;15.70;99.90;;;;;;5094026;28;19912;-77
2022/10/30 09:08:10;;;;;;;;;;;15.90;99.30;;;;;;5090729;28;20413;-77
2022/10/30 09:10:35;;;;;;;;;;;16.00;96.80;;;;;;5100540;28;19920;-76
2022/10/30 09:13:01;;;;;;;;;;;16.00;96.30;;;;;;5095973;28;19912;-76
2022/10/30 09:15:26;;;;;;;;;;;16.10;95.80;;;;;;5094893;28;19976;-76
2022/10/30 09:17:56;;;;;;;;;;;16.10;95.40;;;;;;5102476;28;20424;-77
2022/10/30 09:20:21;;;;;;;;;;;16.30;94.60;;;;;;5096733;28;19955;-77
2022/10/30 09:22:47;;;;;;;;;;;16.50;93.70;;;;;;5094344;28;19966;-77
2022/10/30 09:25:12;;;;;;;;;;;16.60;92.30;;;;;;5089302;28;19916;-77
2022/10/30 09:27:38;;;;;;;;;;;16.70;91.30;;;;;;5094553;28;19965;-77
2022/10/30 09:30:04;;;;;;;;;;;16.80;91.60;;;;;;5088410;28;20007;-76
2022/10/30 09:32:30;;;;;;;;;;;17.00;91.20;;;;;;5097085;28;19916;-76
2022/10/30 09:34:56;;;;;;;;;;;17.00;90.60;;;;;;5098929;28;19927;-76
2022/10/30 09:37:23;;;;;;;;;;;17.00;90.60;;;;;;5091481;28;19931;-78
2022/10/30 09:39:48;;;;;;;;;;;17.20;89.30;;;;;;5101155;28;20430;-78
2022/10/30 09:42:20;;;;;;;;;;;17.10;84.00;;;;;;5100788;28;19920;-77
2022/10/30 09:45:04;;;;;;;;;;;17.20;81.50;;;;;;5094371;28;19924;-75
2022/10/30 09:47:48;;;;;;;;;;;17.30;77.90;;;;;;5099594;28;20601;-76
2022/10/30 09:50:36;;;;;;;;;;;17.50;76.80;;;;;;5093255;28;19916;-76
2022/10/30 09:53:07;;;;;;;;;;;17.50;73.10;;;;;;5087048;28;20438;-76
2022/10/30 09:55:38;;;;;;;;;;;17.60;72.90;;;;;;5106775;28;19968;-76
2022/10/30 09:58:12;;;;;;;;;;;17.70;73.00;;;;;;5096053;28;19949;-76
2022/10/30 10:00:43;;;;;;;;;;;17.70;72.70;;;;;;5092229;28;19979;-79
2022/10/30 10:03:34;;;;;;;;;;;17.80;71.90;;;;;;5104450;28;19916;-79
2022/10/30 10:06:00;;;;;;;;;;;17.90;71.50;;;;;;5098433;28;19916;-77
2022/10/30 10:08:41;;;;;;;;;;;18.00;69.70;;;;;;5093933;28;19920;-79
2022/10/30 10:11:13;;;;;;;;;;;18.10;69.40;;;;;;5100230;28;19916;-79
2022/10/30 10:13:55;;;;;;;;;;;18.20;70.00;;;;;;5096672;28;19926;-78
2022/10/30 10:16:23;;;;;;;;;;;18.40;71.10;;;;;;5100212;28;19922;-79
2022/10/30 10:18:49;;;;;;;;;;;18.30;68.40;;;;;;5102956;28;19923;-76
2022/10/30 10:21:20;;;;;;;;;;;18.40;66.40;;;;;;5095617;28;19923;-77
2022/10/30 10:23:47;;;;;;;;;;;18.50;68.20;;;;;;5098212;28;20298;-76
2022/10/30 10:26:22;;;;;;;;;;;18.60;69.80;;;;;;5102940;28;19926;-77
2022/10/30 10:28:50;;;;;;;;;;;18.70;66.70;;;;;;5092094;28;19921;-76
2022/10/30 10:31:16;;;;;;;;;;;18.80;64.90;;;;;;5099691;28;19923;-77
2022/10/30 10:34:10;;;;;;;;;;;18.80;65.90;;;;;;5105414;28;19916;-76
2022/10/30 10:37:15;;;;;;;;;;;18.90;66.00;;;;;;5039661;28;19912;-76
2022/10/30 10:40:07;;;;;;;;;;;18.90;64.90;;;;;;5007138;28;20719;-76
2022/10/30 10:42:38;;;;;;;;;;;19.00;66.10;;;;;;4960126;28;19913;-76
2022/10/30 10:45:16;;;;;;;;;;;19.10;65.00;;;;;;5078401;27;19920;-77
2022/10/30 10:47:50;;;;;;;;;;;19.20;65.00;;;;;;5107149;28;19912;-76
2022/10/30 10:50:32;;;;;;;;;;;19.20;66.10;;;;;;5102028;28;19916;-76
2022/10/30 10:53:00;;;;;;;;;;;19.20;66.30;;;;;;5096809;28;19916;-81
2022/10/30 10:55:27;;;;;;;;;;;19.20;65.10;;;;;;5110697;28;19916;-81
2022/10/30 10:57:56;;;;;;;;;;;19.40;62.80;;;;;;5109170;28;19916;-82
2022/10/30 11:00:29;;;;;;;;;;;19.40;62.00;;;;;;5094032;28;19976;-82
2022/10/30 11:02:58;;;;;;;;;;;19.50;63.40;;;;;;5098705;28;19916;-81
2022/10/30 11:05:36;;;;;;;;;;;19.60;62.60;;;;;;5102116;28;19912;-81
2022/10/30 11:08:17;;;;;;;;;;;19.60;61.80;;;;;;5090418;28;19955;-82
2022/10/30 11:10:44;;;;;;;;;;;19.70;62.40;;;;;;5095175;28;19912;-81
2022/10/30 11:13:13;;;;;;;;;;;19.70;61.60;;;;;;5097773;28;19916;-81
2022/10/30 11:15:44;;;;;;;;;;;19.80;61.00;;;;;;5094048;28;19919;-81
2022/10/30 11:18:10;;;;;;;;;;;19.80;60.10;;;;;;5099474;28;19919;-81
2022/10/30 11:20:39;;;;;;;;;;;20.00;60.30;;;;;;5094394;28;19973;-82
2022/10/30 11:23:24;;;;;;;;;;;20.00;59.00;;;;;;5093937;28;19964;-82
2022/10/30 11:25:50;;;;;;;;;;;20.00;60.20;;;;;;5100510;28;20017;-83
2022/10/30 11:28:30;;;;;;;;;;;20.10;59.10;;;;;;5099390;28;20023;-82
2022/10/30 11:31:15;;;;;;;;;;;20.20;56.80;;;;;;5091701;28;19921;-82
2022/10/30 11:33:41;;;;;;;;;;;20.30;59.10;;;;;;5089652;28;19922;-78
2022/10/30 11:36:09;;;;;;;;;;;20.40;58.70;;;;;;5095927;28;19942;-78
2022/10/30 11:38:35;;;;;;;;;;;20.30;57.60;;;;;;5078964;28;20018;-80
2022/10/30 11:41:01;;;;;;;;;;;20.30;59.30;;;;;;5104955;28;20426;-77
2022/10/30 11:43:26;;;;;;;;;;;20.40;59.20;;;;;;5095876;28;19915;-80
2022/10/30 11:45:52;;;;;;;;;;;20.60;60.10;;;;;;5097132;28;20605;-80
2022/10/30 11:48:21;;;;;;;;;;;20.50;56.20;;;;;;5100047;28;20006;-81
2022/10/30 11:50:48;;;;;;;;;;;20.50;55.60;;;;;;5092354;28;19927;-82
2022/10/30 11:53:19;;;;;;;;;;;20.50;55.60;;;;;;5090671;28;20417;-81
2022/10/30 11:55:45;;;;;;;;;;;20.60;52.10;;;;;;5088860;28;20003;-83
2022/10/30 11:58:21;;;;;;;;;;;20.70;51.90;;;;;;5097254;28;19916;-84
2022/10/30 12:00:57;;;;;;;;;;;20.70;51.30;;;;;;5091972;28;20383;-76
2022/10/30 12:03:35;;;;;;;;;;;20.70;52.40;;;;;;5089061;28;19919;-75
2022/10/30 12:06:08;;;;;;;;;;;20.80;51.70;;;;;;5095694;28;19920;-75
2022/10/30 12:08:33;;;;;;;;;;;20.80;50.50;;;;;;5096357;28;19920;-76
2022/10/30 12:11:00;;;;;;;;;;;21.00;50.60;;;;;;5094237;28;19985;-75
2022/10/30 12:13:26;;;;;;;;;;;21.00;50.30;;;;;;5087671;28;19920;-75
2022/10/30 12:16:11;;;;;;;;;;;21.00;50.60;;;;;;5094654;28;19923;-75
2022/10/30 12:18:38;;;;;;;;;;;21.00;48.70;;;;;;5095587;28;19916;-75
2022/10/30 12:21:03;;;;;;;;;;;21.00;49.30;;;;;;5093291;28;20410;-76
2022/10/30 12:23:30;;;;;;;;;;;21.10;48.20;;;;;;5091519;28;19989;-76
2022/10/30 12:25:58;;;;;;;;;;;21.20;49.60;;;;;;5101498;28;19989;-77
2022/10/30 12:28:24;;;;;;;;;;;21.20;50.10;;;;;;5092088;28;19990;-74
2022/10/30 12:30:52;;;;;;;;;;;21.30;49.40;;;;;;5100813;28;19916;-75
2022/10/30 12:33:37;;;;;;;;;;;21.40;51.00;;;;;;5092890;28;19912;-74
2022/10/30 12:36:32;;;;;;;;;;;21.50;49.30;;;;;;5091014;28;19922;-84
2022/10/30 12:39:01;;;;;;;;;;;21.50;50.80;;;;;;5088723;28;19916;-75
2022/10/30 12:41:45;;;;;;;;;;;21.60;51.30;;;;;;5097621;28;20322;-75
2022/10/30 12:44:14;;;;;;;;;;;21.50;50.40;;;;;;5086215;28;19924;-77
2022/10/30 12:46:51;;;;;;;;;;;21.40;50.90;;;;;;5091254;28;19920;-78
2022/10/30 12:49:17;;;;;;;;;;;21.40;50.90;;;;;;5094694;28;19924;-77
2022/10/30 12:51:45;;;;;;;;;;;21.50;51.10;;;;;;5092827;28;19919;-75
2022/10/30 12:54:29;;;;;;;;;;;21.50;52.10;;;;;;5099277;28;19918;-75
2022/10/30 12:57:21;;;;;;;;;;;21.70;51.60;;;;;;5095643;28;19923;-74
2022/10/30 12:59:54;;;;;;;;;;;21.80;53.80;;;;;;5066188;28;19912;-75
2022/10/30 13:02:29;;;;;;;;;;;21.80;51.90;;;;;;5102007;28;19920;-74
2022/10/30 13:04:58;;;;;;;;;;;21.70;51.90;;;;;;5098079;28;19916;-74
2022/10/30 13:07:23;;;;;;;;;;;21.70;52.30;;;;;;5091848;28;19920;-76
2022/10/30 13:09:59;;;;;;;;;;;21.70;52.70;;;;;;5099890;28;20578;-75
2022/10/30 13:12:34;;;;;;;;;;;21.80;51.50;;;;;;5091394;28;19999;-80
2022/10/30 13:15:19;;;;;;;;;;;21.90;51.50;;;;;;5085434;28;19975;-80
2022/10/30 13:17:45;;;;;;;;;;;22.00;50.00;;;;;;5098763;28;19986;-76
2022/10/30 13:20:12;;;;;;;;;;;22.10;50.50;;;;;;5098327;28;20027;-76
2022/10/30 13:22:54;;;;;;;;;;;22.20;50.10;;;;;;5087616;28;19955;-75
2022/10/30 13:25:22;;;;;;;;;;;22.00;50.50;;;;;;5110622;27;19921;-76
2022/10/30 13:27:54;;;;;;;;;;;22.10;50.60;;;;;;5100880;28;19912;-75
2022/10/30 13:30:20;;;;;;;;;;;22.10;51.60;;;;;;5088070;28;19934;-76
2022/10/30 13:32:52;;;;;;;;;;;22.00;52.10;;;;;;5103016;28;19922;-75
2022/10/30 13:35:27;;;;;;;;;;;22.10;51.90;;;;;;5097745;28;19920;-75
2022/10/30 13:38:01;;;;;;;;;;;22.10;51.00;;;;;;5091902;28;19926;-75
2022/10/30 13:40:33;;;;;;;;;;;22.10;51.00;;;;;;5100380;28;20156;-75
2022/10/30 13:43:04;;;;;;;;;;;22.00;51.90;;;;;;5094944;28;19916;-75
2022/10/30 13:45:30;;;;;;;;;;;21.80;52.70;;;;;;5086996;28;20380;-75
2022/10/30 13:48:06;;;;;;;;;;;21.90;52.70;;;;;;5096854;28;19919;-75
2022/10/30 13:50:34;;;;;;;;;;;22.00;52.70;;;;;;5104264;28;19916;-75
2022/10/30 13:53:02;;;;;;;;;;;21.90;52.60;;;;;;5103848;28;19920;-75
2022/10/30 13:55:32;;;;;;;;;;;21.80;53.50;;;;;;5105316;28;19923;-75
2022/10/30 13:58:01;;;;;;;;;;;21.80;53.80;;;;;;5096210;28;19984;-75
2022/10/30 14:00:30;;;;;;;;;;;21.80;53.80;;;;;;5097217;28;20635;-76
2022/10/30 14:03:14;;;;;;;;;;;21.80;54.10;;;;;;5099519;28;19965;-75
2022/10/30 14:06:18;;;;;;;;;;;21.90;52.40;;;;;;5096002;28;20002;-75
2022/10/30 14:09:01;;;;;;;;;;;21.80;52.20;;;;;;5027148;28;19977;-76
2022/10/30 14:11:27;;;;;;;;;;;21.80;53.50;;;;;;5025743;28;20414;-75
2022/10/30 14:13:57;;;;;;;;;;;21.80;53.20;;;;;;5068960;28;19923;-75
2022/10/30 14:16:39;;;;;;;;;;;21.80;53.50;;;;;;5094326;28;19999;-75
2022/10/30 14:19:06;;;;;;;;;;;21.80;53.30;;;;;;5100215;28;19916;-75
2022/10/30 14:21:40;;;;;;;;;;;21.80;54.00;;;;;;5096524;28;20046;-75
2022/10/30 14:24:11;;;;;;;;;;;21.80;53.80;;;;;;5096022;28;19916;-76